Time;durP1;ratioP1;P1;durP2;ratioP2;P2;SDS_P1;SDS_P2;PMS_P1;PMS_P2;Temp;Humidity;BMP_temperature;BMP_pressure;BME280_temperature;BME280_humidity;BME280_pressure;Samples;Min_cycle;Max_cycle;Signal;HPM_P1;HPM_P2
2021/09/14 00:00:14;;;;;;;6.80;3.35;;;;;;;21.33;74.59;99689.03;5092475;28;20559;-66
2021/09/14 00:02:41;;;;;;;6.07;3.55;;;;;;;21.34;74.51;99702.06;5088247;28;20540;-66
2021/09/14 00:05:09;;;;;;;7.63;3.42;;;;;;;21.22;74.81;99668.09;5094003;28;20054;-66
2021/09/14 00:07:36;;;;;;;10.15;4.45;;;;;;;21.38;74.43;99697.28;5107038;28;20082;-64
2021/09/14 00:10:04;;;;;;;5.80;3.15;;;;;;;21.31;74.72;99677.22;5099656;28;20479;-63
2021/09/14 00:12:31;;;;;;;6.93;3.65;;;;;;;21.32;74.86;99695.91;5099620;28;20134;-62
2021/09/14 00:14:58;;;;;;;6.22;3.30;;;;;;;21.28;74.50;99692.19;5102061;28;20123;-62
2021/09/14 00:17:25;;;;;;;7.30;3.92;;;;;;;21.34;74.36;99704.91;5097879;28;20122;-63
2021/09/14 00:19:52;;;;;;;10.80;4.75;;;;;;;21.33;74.59;99699.56;5109908;28;20119;-63
2021/09/14 00:22:19;;;;;;;7.53;3.55;;;;;;;21.37;74.40;99715.53;5104305;28;20454;-63
2021/09/14 00:24:46;;;;;;;6.97;3.30;;;;;;;21.34;74.82;99709.75;5103935;28;20126;-63
2021/09/14 00:27:13;;;;;;;9.90;3.60;;;;;;;21.28;74.58;99703.53;5107391;28;20127;-63
2021/09/14 00:29:40;;;;;;;10.93;4.30;;;;;;;21.03;74.77;99672.59;5105470;28;20127;-64
2021/09/14 00:32:07;;;;;;;9.40;3.83;;;;;;;21.11;74.54;99684.09;5107858;28;20084;-65
2021/09/14 00:34:33;;;;;;;5.75;2.70;;;;;;;21.10;74.88;99674.78;5094043;28;20073;-63
2021/09/14 00:37:00;;;;;;;10.77;4.03;;;;;;;21.33;74.63;99708.91;5098364;28;20679;-63
2021/09/14 00:39:27;;;;;;;4.97;3.13;;;;;;;21.29;74.63;99703.16;5104810;28;20507;-63
2021/09/14 00:41:54;;;;;;;8.77;3.28;;;;;;;21.26;74.90;99703.06;5101039;28;20125;-65
2021/09/14 00:44:21;;;;;;;6.20;4.22;;;;;;;21.24;74.79;99705.47;5086282;28;20040;-68
2021/09/14 00:46:47;;;;;;;7.43;3.50;;;;;;;21.18;74.81;99689.94;5100384;28;20126;-66
2021/09/14 00:49:15;;;;;;;6.35;3.20;;;;;;;21.23;74.70;99698.13;5098175;27;20040;-66
2021/09/14 00:51:42;;;;;;;8.13;3.70;;;;;;;21.21;74.83;99703.38;5096202;28;20122;-65
2021/09/14 00:54:16;;;;;;;6.10;3.30;;;;;;;21.14;74.73;99698.38;5102670;28;20126;-66
2021/09/14 00:56:43;;;;;;;5.38;3.15;;;;;;;21.18;74.54;99704.94;5096999;28;20086;-69
2021/09/14 00:59:11;;;;;;;8.18;2.83;;;;;;;21.22;74.17;99697.31;5081614;28;20139;-66
2021/09/14 01:01:38;;;;;;;7.40;2.65;;;;;;;21.22;74.38;99697.31;5097370;27;20087;-64
2021/09/14 01:04:05;;;;;;;9.50;3.25;;;;;;;20.99;74.23;99671.72;5111013;28;20395;-66
2021/09/14 01:06:33;;;;;;;3.60;2.38;;;;;;;21.20;74.09;99693.22;5094935;28;20072;-70
2021/09/14 01:09:01;;;;;;;6.07;2.80;;;;;;;21.26;74.04;99694.56;5110318;28;20035;-67
2021/09/14 01:11:29;;;;;;;3.28;2.45;;;;;;;21.27;74.15;99702.72;5096905;27;20044;-63
2021/09/14 01:14:07;;;;;;;5.07;2.63;;;;;;;21.23;74.09;99686.78;5107566;27;20078;-65
2021/09/14 01:16:36;;;;;;;6.15;2.72;;;;;;;21.27;73.75;99691.34;5112023;28;20055;-65
2021/09/14 01:19:06;;;;;;;5.90;2.93;;;;;;;21.27;73.52;99687.69;5097001;28;20076;-65
2021/09/14 01:21:33;;;;;;;6.75;2.28;;;;;;;21.23;73.69;99681.09;5095890;28;20130;-66
2021/09/14 01:24:01;;;;;;;5.80;3.05;;;;;;;21.23;73.75;99684.78;5106590;27;20199;-67
2021/09/14 01:26:30;;;;;;;5.03;3.05;;;;;;;21.28;73.67;99692.19;5112597;27;20048;-67
2021/09/14 01:28:56;;;;;;;2.78;2.10;;;;;;;21.24;73.84;99699.81;5099920;28;20131;-63
2021/09/14 01:31:23;;;;;;;7.32;2.80;;;;;;;21.20;73.89;99690.41;5101429;28;20139;-63
2021/09/14 01:33:52;;;;;;;6.72;3.20;;;;;;;21.09;73.78;99660.94;5104967;28;20551;-64
2021/09/14 01:36:19;;;;;;;6.82;2.33;;;;;;;21.17;73.95;99669.25;5113146;28;20074;-63
2021/09/14 01:38:47;;;;;;;4.05;2.20;;;;;;;21.25;73.93;99678.72;5100079;28;20447;-64
2021/09/14 01:41:15;;;;;;;9.05;2.30;;;;;;;21.20;74.06;99679.84;5110206;28;20059;-63
2021/09/14 01:43:42;;;;;;;3.72;1.98;;;;;;;21.16;73.87;99669.59;5107147;27;20044;-64
2021/09/14 01:46:09;;;;;;;3.30;1.90;;;;;;;21.05;74.15;99663.69;5112195;27;20130;-63
2021/09/14 01:48:36;;;;;;;5.03;2.47;;;;;;;21.04;74.13;99668.56;5108730;27;20043;-64
2021/09/14 01:51:03;;;;;;;3.67;2.40;;;;;;;21.08;73.68;99670.66;5100685;28;20399;-65
2021/09/14 01:53:30;;;;;;;4.97;2.53;;;;;;;21.09;73.63;99669.44;5088537;28;20484;-67
2021/09/14 01:56:06;;;;;;;6.15;2.67;;;;;;;21.18;73.35;99667.22;5108229;28;20071;-70
2021/09/14 01:58:33;;;;;;;4.57;2.28;;;;;;;21.21;73.36;99672.97;5101418;28;20308;-70
2021/09/14 02:03:36;;;;;;;5.35;2.25;;;;;;;21.05;73.26;99646.66;5108772;28;20438;-69
2021/09/14 02:23:41;;;;;;;4.75;2.35;;;;;;;21.14;73.48;99666.31;5101010;28;20074;-67
2021/09/14 02:39:13;;;;;;;7.25;2.10;;;;;;;21.14;73.22;99630.25;5078673;28;20080;-66
2021/09/14 03:01:00;;;;;;;6.70;3.88;;;;;;;21.18;71.70;99638.81;5088439;28;20127;-70
2021/09/14 03:03:27;;;;;;;12.30;3.00;;;;;;;21.13;71.65;99636.28;5099929;28;20039;-70
2021/09/14 03:05:54;;;;;;;9.57;4.00;;;;;;;21.04;71.40;99634.50;5100216;28;20131;-70
2021/09/14 03:08:22;;;;;;;7.72;4.25;;;;;;;21.05;71.40;99641.81;5102558;28;20549;-70
2021/09/14 03:10:48;;;;;;;12.05;2.83;;;;;;;21.01;71.89;99652.28;5112852;28;20043;-68
2021/09/14 03:13:15;;;;;;;5.57;3.20;;;;;;;20.99;72.04;99643.31;5101696;28;20087;-69
2021/09/14 03:15:42;;;;;;;11.30;3.95;;;;;;;20.92;72.37;99634.66;5101415;28;20138;-70
2021/09/14 03:18:09;;;;;;;7.45;3.40;;;;;;;20.88;72.92;99641.44;5112146;28;20536;-69
2021/09/14 03:20:36;;;;;;;6.50;2.85;;;;;;;20.83;72.93;99639.72;5097623;28;20098;-69
2021/09/14 03:23:03;;;;;;;8.85;3.78;;;;;;;20.65;73.23;99615.78;5101072;27;20036;-64
2021/09/14 03:25:30;;;;;;;10.93;2.72;;;;;;;20.67;73.59;99638.94;5106127;28;20078;-64
2021/09/14 03:27:56;;;;;;;7.78;3.15;;;;;;;20.53;73.57;99633.78;5106327;27;20134;-67
2021/09/14 03:30:23;;;;;;;6.85;2.88;;;;;;;20.50;74.22;99632.50;5107304;28;20138;-69
2021/09/14 03:32:50;;;;;;;7.47;3.22;;;;;;;20.47;74.09;99621.84;5096167;28;20130;-68
2021/09/14 03:35:17;;;;;;;6.18;2.40;;;;;;;20.39;74.19;99608.72;5100046;28;20050;-71
2021/09/14 03:37:44;;;;;;;8.68;3.30;;;;;;;20.35;74.09;99602.16;5106140;28;20131;-68
2021/09/14 03:40:11;;;;;;;5.28;3.13;;;;;;;20.35;74.58;99608.63;5087197;28;20131;-69
2021/09/14 03:42:38;;;;;;;4.35;2.65;;;;;;;20.31;74.62;99616.25;5102151;28;20044;-68
2021/09/14 03:45:05;;;;;;;8.15;2.45;;;;;;;20.28;74.57;99597.13;5085645;28;20138;-69
2021/09/14 03:47:32;;;;;;;11.35;3.03;;;;;;;20.42;74.33;99621.34;5091949;28;20130;-72
2021/09/14 03:49:58;;;;;;;3.53;2.45;;;;;;;20.37;74.25;99611.09;5094858;28;20123;-68
2021/09/14 03:52:25;;;;;;;7.28;2.65;;;;;;;20.45;74.02;99615.75;5089006;28;20067;-70
2021/09/14 03:54:52;;;;;;;5.72;3.30;;;;;;;20.38;74.26;99618.41;5111892;28;20131;-68
2021/09/14 03:57:19;;;;;;;6.68;3.13;;;;;;;20.13;74.30;99586.63;5110347;28;20130;-67
2021/09/14 03:59:46;;;;;;;5.75;2.85;;;;;;;20.33;74.43;99616.66;5082286;28;20083;-67
2021/09/14 04:02:18;;;;;;;8.70;3.33;;;;;;;20.25;74.42;99603.53;5094423;28;20198;-68
2021/09/14 04:05:05;;;;;;;3.40;2.35;;;;;;;20.13;74.69;99593.09;5103104;28;20097;-67
2021/09/14 04:10:06;;;;;;;4.75;3.03;;;;;;;20.17;74.85;99590.41;5108607;28;20067;-63
2021/09/14 04:12:33;;;;;;;5.57;3.08;;;;;;;20.07;75.29;99579.63;5104283;28;20075;-63
2021/09/14 04:15:00;;;;;;;9.27;2.67;;;;;;;20.15;75.11;99581.41;5104266;28;20074;-64
2021/09/14 04:17:27;;;;;;;7.53;2.83;;;;;;;20.16;74.98;99579.41;5102244;28;20113;-63
2021/09/14 04:19:54;;;;;;;5.75;2.97;;;;;;;20.10;74.99;99579.72;5095762;28;20213;-64
2021/09/14 04:22:21;;;;;;;4.70;1.98;;;;;;;20.05;75.40;99564.97;5104683;28;20643;-65
2021/09/14 04:24:48;;;;;;;9.38;3.75;;;;;;;20.09;75.23;99565.88;5100767;28;20044;-64
2021/09/14 04:27:15;;;;;;;4.05;2.25;;;;;;;20.04;75.14;99552.00;5116130;27;20462;-63
2021/09/14 04:29:41;;;;;;;5.55;3.50;;;;;;;20.11;75.21;99569.19;5098636;28;20139;-64
2021/09/14 04:32:08;;;;;;;5.00;2.83;;;;;;;20.23;74.85;99569.03;5098049;28;20071;-64
2021/09/14 04:34:35;;;;;;;6.18;2.53;;;;;;;20.24;74.30;99556.53;5100953;28;20135;-63
2021/09/14 04:37:02;;;;;;;4.40;2.63;;;;;;;20.26;74.09;99554.13;5112850;28;20131;-64
2021/09/14 04:39:29;;;;;;;4.97;2.97;;;;;;;20.33;74.08;99564.81;5103225;27;20130;-64
2021/09/14 04:41:56;;;;;;;5.07;2.67;;;;;;;20.34;73.94;99566.44;5094288;28;20047;-64
2021/09/14 04:44:23;;;;;;;5.70;2.83;;;;;;;20.38;73.83;99561.72;5104645;27;20407;-65
2021/09/14 04:46:49;;;;;;;4.35;2.10;;;;;;;20.38;73.88;99556.03;5100573;28;20069;-68
2021/09/14 04:49:16;;;;;;;6.38;2.60;;;;;;;20.28;73.85;99539.59;5097750;28;20079;-67
2021/09/14 04:51:43;;;;;;;6.95;2.75;;;;;;;20.32;74.01;99547.00;5114295;28;20127;-67
2021/09/14 04:54:10;;;;;;;9.60;2.63;;;;;;;20.24;73.97;99528.19;5092287;28;20127;-71
2021/09/14 04:56:37;;;;;;;4.30;2.50;;;;;;;20.28;73.67;99540.44;5104330;27;20134;-71
2021/09/14 04:59:04;;;;;;;6.07;2.50;;;;;;;20.29;73.78;99552.59;5102529;28;20051;-68
2021/09/14 05:01:31;;;;;;;6.93;2.72;;;;;;;20.30;73.78;99546.53;5109528;28;20466;-66
2021/09/14 05:03:58;;;;;;;3.33;1.80;;;;;;;20.31;73.83;99547.38;5111576;28;20043;-69
2021/09/14 05:06:24;;;;;;;5.95;2.45;;;;;;;20.05;73.69;99494.94;5110755;28;20127;-69
2021/09/14 05:08:51;;;;;;;3.53;2.10;;;;;;;20.32;73.84;99554.69;5109893;28;20093;-78
2021/09/14 05:11:18;;;;;;;4.88;1.90;;;;;;;20.30;73.86;99559.88;5109221;28;20506;-71
2021/09/14 05:13:45;;;;;;;3.55;2.25;;;;;;;20.31;73.96;99555.88;5091965;28;20091;-68
2021/09/14 05:16:12;;;;;;;4.95;2.38;;;;;;;20.07;73.46;99518.09;5106125;28;20131;-67
2021/09/14 05:18:39;;;;;;;5.43;2.17;;;;;;;20.39;73.48;99559.69;5108897;28;20040;-63
2021/09/14 05:21:05;;;;;;;5.25;2.17;;;;;;;20.33;73.47;99547.81;5115674;27;20174;-63
2021/09/14 05:23:33;;;;;;;8.05;3.22;;;;;;;20.32;73.34;99534.84;5089942;28;20123;-63
2021/09/14 05:26:01;;;;;;;4.28;2.05;;;;;;;20.24;73.44;99516.00;5110275;28;20054;-63
2021/09/14 05:28:29;;;;;;;6.63;2.05;;;;;;;20.40;73.73;99542.28;5104198;28;20059;-61
2021/09/14 05:31:01;;;;;;;4.95;2.10;;;;;;;20.34;73.52;99550.28;5107913;28;20035;-62
2021/09/14 05:33:28;;;;;;;6.60;2.13;;;;;;;20.36;73.94;99547.06;5098628;28;20044;-66
2021/09/14 05:35:56;;;;;;;3.33;2.03;;;;;;;20.38;73.62;99555.22;5100632;28;20423;-62
2021/09/14 05:38:24;;;;;;;3.47;2.03;;;;;;;20.34;73.81;99549.44;5104547;27;20046;-70
2021/09/14 05:40:54;;;;;;;4.25;2.33;;;;;;;20.35;73.74;99548.28;5094562;28;20040;-66
2021/09/14 05:43:22;;;;;;;5.40;2.38;;;;;;;20.32;73.59;99546.19;5095039;28;20076;-60
2021/09/14 05:45:49;;;;;;;5.15;1.92;;;;;;;20.28;73.45;99551.75;5098611;28;20134;-62
2021/09/14 05:48:16;;;;;;;4.50;2.30;;;;;;;20.24;73.80;99553.69;5104078;28;20089;-62
2021/09/14 05:50:43;;;;;;;4.80;2.70;;;;;;;20.16;73.77;99560.38;5105314;28;20134;-62
2021/09/14 05:53:10;;;;;;;4.18;2.20;;;;;;;20.07;74.01;99557.75;5087506;28;20071;-61
2021/09/14 05:55:38;;;;;;;4.68;2.22;;;;;;;20.00;73.99;99554.75;5107533;28;20123;-62
2021/09/14 05:58:06;;;;;;;6.93;3.55;;;;;;;20.11;73.98;99570.00;5101658;28;20047;-62
2021/09/14 06:00:34;;;;;;;7.63;2.65;;;;;;;20.16;73.76;99570.91;5103836;28;20449;-66
2021/09/14 06:03:02;;;;;;;5.78;2.60;;;;;;;20.05;73.84;99567.81;5105246;28;20051;-60
2021/09/14 06:05:29;;;;;;;7.32;2.28;;;;;;;20.01;73.89;99581.91;5107790;28;20063;-60
2021/09/14 06:07:56;;;;;;;4.97;2.45;;;;;;;19.93;74.16;99580.09;5076851;28;20068;-61
2021/09/14 06:10:23;;;;;;;5.97;2.50;;;;;;;19.87;74.33;99584.41;5103616;28;20082;-61
2021/09/14 06:12:49;;;;;;;7.47;2.40;;;;;;;19.78;74.37;99589.41;5098901;27;20472;-61
2021/09/14 06:15:16;;;;;;;8.18;2.30;;;;;;;19.58;74.55;99569.47;5109485;28;20067;-60
2021/09/14 06:17:43;;;;;;;5.22;2.10;;;;;;;19.73;74.66;99587.69;5099538;28;20071;-60
2021/09/14 06:20:11;;;;;;;6.35;2.08;;;;;;;19.78;74.32;99589.41;5109144;27;20134;-62
2021/09/14 06:22:38;;;;;;;7.00;2.53;;;;;;;19.45;74.25;99536.75;5114066;27;20043;-62
2021/09/14 06:25:05;;;;;;;4.80;2.17;;;;;;;19.64;74.42;99573.69;5100834;28;20044;-62
2021/09/14 06:27:32;;;;;;;6.18;2.47;;;;;;;19.71;74.19;99595.72;5105300;27;20475;-62
2021/09/14 06:29:59;;;;;;;6.53;2.30;;;;;;;19.81;74.00;99608.50;5092043;28;20437;-61
2021/09/14 06:32:26;;;;;;;8.75;2.38;;;;;;;19.63;73.91;99580.56;5103167;28;20040;-60
2021/09/14 06:34:53;;;;;;;6.63;3.60;;;;;;;19.82;73.99;99619.47;5117181;27;20070;-61
2021/09/14 06:37:20;;;;;;;4.63;2.20;;;;;;;19.83;74.17;99614.66;5100353;28;20154;-59
2021/09/14 06:39:47;;;;;;;4.70;2.10;;;;;;;19.79;73.89;99602.38;5105215;28;20078;-60
2021/09/14 06:42:14;;;;;;;7.85;2.58;;;;;;;19.87;73.90;99609.91;5104946;27;20147;-59
2021/09/14 06:44:40;;;;;;;5.53;2.13;;;;;;;19.61;73.84;99573.56;5112142;27;20134;-60
2021/09/14 06:47:07;;;;;;;7.65;2.25;;;;;;;20.01;74.05;99618.75;5114688;27;20048;-59
2021/09/14 06:49:34;;;;;;;4.40;2.20;;;;;;;20.08;74.01;99618.09;5099909;28;20138;-60
2021/09/14 06:52:01;;;;;;;6.22;2.58;;;;;;;20.09;73.63;99612.06;5105456;28;20040;-60
2021/09/14 06:54:28;;;;;;;5.30;1.95;;;;;;;20.22;73.44;99614.78;5102824;28;20043;-60
2021/09/14 06:56:54;;;;;;;3.75;2.10;;;;;;;20.33;73.19;99622.34;5101277;27;20071;-63
2021/09/14 06:59:21;;;;;;;4.35;2.25;;;;;;;20.34;72.91;99607.00;5099984;27;20118;-63
2021/09/14 07:01:48;;;;;;;4.13;2.20;;;;;;;20.70;72.60;99621.19;5103079;28;20494;-61
2021/09/14 07:04:25;;;;;;;4.05;2.30;;;;;;;20.85;72.28;99628.81;5099505;28;20135;-60
2021/09/14 07:06:52;;;;;;;7.93;3.78;;;;;;;21.06;71.90;99632.13;5107928;28;20071;-66
2021/09/14 07:09:19;;;;;;;5.95;3.47;;;;;;;21.14;71.55;99604.69;5107900;27;20178;-62
2021/09/14 07:11:46;;;;;;;4.53;2.60;;;;;;;21.43;71.16;99605.25;5105916;27;20039;-64
2021/09/14 07:14:13;;;;;;;5.20;1.90;;;;;;;21.66;70.50;99605.28;5103744;27;20104;-65
2021/09/14 07:16:39;;;;;;;6.10;4.00;;;;;;;22.12;70.00;99630.81;5105317;27;20039;-62
2021/09/14 07:19:07;;;;;;;10.20;4.40;;;;;;;22.47;69.38;99637.13;5108424;28;20046;-65
2021/09/14 07:21:35;;;;;;;6.10;3.53;;;;;;;22.74;68.76;99637.13;5086097;28;20119;-63
2021/09/14 07:24:01;;;;;;;3.13;2.10;;;;;;;22.87;68.24;99627.13;5095122;28;20118;-63
2021/09/14 07:26:28;;;;;;;6.68;3.28;;;;;;;23.24;67.84;99634.13;5105255;27;20126;-75
2021/09/14 07:28:55;;;;;;;2.33;1.80;;;;;;;23.45;66.80;99633.53;5106929;28;20098;-78
2021/09/14 07:31:22;;;;;;;3.70;2.05;;;;;;;23.48;65.44;99630.72;5090414;28;20075;-61
2021/09/14 07:33:49;;;;;;;3.83;2.50;;;;;;;23.58;65.36;99626.34;5112197;27;20040;-61
2021/09/14 07:36:16;;;;;;;4.97;1.80;;;;;;;23.72;64.14;99637.94;5101898;28;20165;-61
2021/09/14 07:38:43;;;;;;;4.65;1.85;;;;;;;23.63;63.24;99640.28;5098231;28;20126;-61
2021/09/14 07:41:10;;;;;;;5.32;2.47;;;;;;;23.63;63.44;99626.84;5104396;28;20047;-61
2021/09/14 07:43:37;;;;;;;3.28;2.05;;;;;;;23.94;62.99;99627.56;5101327;28;20059;-61
2021/09/14 07:46:07;;;;;;;3.42;1.50;;;;;;;24.21;62.64;99622.50;5096489;28;20538;-61
2021/09/14 07:48:34;;;;;;;5.80;2.58;;;;;;;24.44;61.81;99633.69;5090130;28;20082;-63
2021/09/14 07:51:01;;;;;;;3.20;1.70;;;;;;;24.74;61.81;99630.63;5090446;28;20552;-63
2021/09/14 07:53:28;;;;;;;6.57;1.73;;;;;;;24.69;61.11;99628.16;5106300;28;20081;-63
2021/09/14 07:55:55;;;;;;;5.03;2.35;;;;;;;24.65;61.26;99633.03;5099309;28;20040;-62
2021/09/14 07:58:22;;;;;;;4.38;2.28;;;;;;;24.43;60.87;99632.06;5106476;28;20510;-62
2021/09/14 08:00:49;;;;;;;4.70;2.17;;;;;;;24.24;60.65;99638.81;5101382;28;20075;-62
2021/09/14 08:03:16;;;;;;;8.02;2.85;;;;;;;24.13;60.69;99626.50;5104698;28;20491;-61
2021/09/14 08:05:43;;;;;;;3.03;1.98;;;;;;;24.09;60.98;99631.34;5112705;28;20456;-62
2021/09/14 08:08:10;;;;;;;5.15;2.35;;;;;;;24.11;60.89;99632.59;5106616;28;20101;-62
2021/09/14 08:10:36;;;;;;;2.97;1.77;;;;;;;24.26;60.71;99639.22;5110670;28;20075;-62
2021/09/14 08:13:04;;;;;;;2.65;2.08;;;;;;;24.32;60.10;99637.66;5112197;28;20075;-62
2021/09/14 08:15:31;;;;;;;6.30;2.40;;;;;;;24.46;60.41;99647.56;5109407;28;20448;-62
2021/09/14 08:17:59;;;;;;;3.53;1.77;;;;;;;24.67;59.63;99636.28;5095122;28;20140;-62
2021/09/14 08:20:26;;;;;;;6.65;2.13;;;;;;;24.99;59.39;99652.78;5091845;28;20269;-62
2021/09/14 08:22:53;;;;;;;6.78;2.00;;;;;;;25.01;59.33;99653.19;5090448;28;20044;-62
2021/09/14 08:25:19;;;;;;;3.75;2.05;;;;;;;25.12;58.83;99650.44;5091072;28;20546;-63
2021/09/14 08:27:47;;;;;;;2.78;1.70;;;;;;;25.39;58.17;99653.81;5115305;28;20458;-62
2021/09/14 08:30:14;;;;;;;6.75;1.70;;;;;;;25.69;57.31;99660.00;5115414;28;20091;-62
2021/09/14 08:32:41;;;;;;;5.38;2.20;;;;;;;26.24;57.09;99653.16;5110828;28;20126;-62
2021/09/14 08:35:09;;;;;;;5.00;1.75;;;;;;;27.13;56.06;99670.25;5090992;28;20071;-62
2021/09/14 08:37:36;;;;;;;3.10;1.65;;;;;;;27.83;55.34;99660.94;5073775;28;20092;-62
2021/09/14 08:40:04;;;;;;;2.40;1.25;;;;;;;27.89;52.49;99673.56;5091050;28;20119;-63
2021/09/14 08:42:35;;;;;;;4.72;1.90;;;;;;;28.17;52.37;99668.88;5091512;28;20076;-63
2021/09/14 08:45:08;;;;;;;4.35;2.05;;;;;;;28.32;51.67;99676.16;5078766;28;20556;-63
2021/09/14 08:47:37;;;;;;;4.68;1.60;;;;;;;28.32;51.22;99676.94;5110388;28;20502;-61
2021/09/14 08:50:06;;;;;;;4.88;2.22;;;;;;;28.11;50.61;99680.81;5093638;28;20048;-61
2021/09/14 08:52:33;;;;;;;3.30;1.60;;;;;;;28.33;50.93;99684.31;5103339;28;20131;-62
2021/09/14 08:55:00;;;;;;;4.78;1.98;;;;;;;28.39;50.18;99676.13;5087824;28;20227;-62
2021/09/14 08:57:27;;;;;;;3.00;1.73;;;;;;;28.51;50.32;99683.38;5091406;28;20048;-62
2021/09/14 08:59:57;;;;;;;3.20;1.98;;;;;;;28.83;49.79;99688.03;5106557;28;20082;-62
2021/09/14 09:02:24;;;;;;;1.88;1.30;;;;;;;28.74;48.70;99686.44;5083786;28;20090;-62
2021/09/14 09:05:03;;;;;;;4.40;1.60;;;;;;;28.64;49.14;99680.81;5115388;28;20075;-61
2021/09/14 09:07:33;;;;;;;5.18;1.95;;;;;;;29.12;48.61;99697.16;5089252;28;20083;-61
2021/09/14 09:10:08;;;;;;;3.33;1.83;;;;;;;29.21;47.89;99674.47;5083247;28;20586;-64
2021/09/14 09:12:40;;;;;;;2.55;1.60;;;;;;;29.38;47.02;99678.38;5094673;28;20139;-62
2021/09/14 09:15:20;;;;;;;2.13;1.50;;;;;;;29.55;46.92;99662.13;5094553;28;20052;-61
2021/09/14 09:17:59;;;;;;;1.88;1.23;;;;;;;29.94;47.14;99676.78;5095154;28;20090;-61
2021/09/14 09:20:26;;;;;;;4.25;1.83;;;;;;;29.61;46.64;99674.84;5107639;28;20127;-61
2021/09/14 09:23:01;;;;;;;3.60;1.60;;;;;;;29.59;46.42;99674.41;5113711;28;20281;-61
2021/09/14 09:25:28;;;;;;;2.80;1.52;;;;;;;29.99;46.34;99687.84;5091946;28;20123;-61
2021/09/14 09:28:23;;;;;;;2.60;1.50;;;;;;;30.56;46.46;99679.53;5120689;27;20126;-61
2021/09/14 09:31:00;;;;;;;2.38;1.40;;;;;;;31.10;45.22;99690.91;5092018;28;20535;-61
2021/09/14 09:33:30;;;;;;;3.83;1.63;;;;;;;30.97;43.76;99695.69;5094414;28;20040;-61
2021/09/14 09:36:09;;;;;;;1.77;1.20;;;;;;;30.95;43.74;99704.00;5094344;28;20059;-61
2021/09/14 09:38:56;;;;;;;4.10;1.33;;;;;;;30.43;43.53;99702.41;5096732;28;20056;-61
2021/09/14 09:41:23;;;;;;;6.50;1.77;;;;;;;30.07;43.69;99705.00;5114708;28;20071;-62
2021/09/14 09:43:50;;;;;;;3.03;1.90;;;;;;;29.79;44.55;99715.69;5108698;28;20040;-61
2021/09/14 09:46:19;;;;;;;2.17;1.50;;;;;;;29.04;44.65;99726.00;5114389;28;20134;-61
2021/09/14 09:48:47;;;;;;;5.40;1.98;;;;;;;28.44;45.70;99724.47;5095471;28;20097;-61
2021/09/14 09:51:15;;;;;;;2.28;1.60;;;;;;;27.88;46.65;99710.06;5094240;28;20080;-62
2021/09/14 09:53:43;;;;;;;3.42;1.90;;;;;;;27.70;47.01;99694.19;5103430;28;20035;-61
2021/09/14 09:56:10;;;;;;;3.97;1.27;;;;;;;27.32;47.89;99722.63;5104957;28;20411;-62
2021/09/14 09:58:37;;;;;;;3.00;1.77;;;;;;;27.09;48.60;99721.00;5100966;27;20089;-61
2021/09/14 10:01:03;;;;;;;3.58;1.33;;;;;;;26.82;49.33;99719.81;5104557;28;20071;-61
2021/09/14 10:03:34;;;;;;;6.72;1.88;;;;;;;26.59;49.58;99723.91;5102021;28;20052;-62
2021/09/14 10:06:09;;;;;;;2.33;1.52;;;;;;;26.43;49.88;99700.59;5107620;28;20047;-62
2021/09/14 10:08:37;;;;;;;4.40;1.70;;;;;;;26.43;50.14;99712.06;5112147;28;20039;-61
2021/09/14 10:11:04;;;;;;;5.70;1.80;;;;;;;26.31;50.32;99704.69;5094855;28;20500;-61
2021/09/14 10:13:40;;;;;;;6.75;1.58;;;;;;;26.40;50.46;99715.72;5096742;28;20515;-62
2021/09/14 10:16:11;;;;;;;4.38;1.73;;;;;;;26.35;50.47;99721.84;5093529;28;20048;-61
2021/09/14 10:18:38;;;;;;;3.97;1.80;;;;;;;26.49;50.54;99727.59;5107621;28;20138;-62
2021/09/14 10:21:05;;;;;;;1.95;1.38;;;;;;;26.48;50.66;99720.25;5095910;28;20471;-61
2021/09/14 10:23:34;;;;;;;1.77;1.35;;;;;;;26.74;50.46;99721.88;5109628;28;20086;-62
2021/09/14 10:26:12;;;;;;;3.13;1.55;;;;;;;26.81;50.49;99733.34;5112798;27;20128;-62
2021/09/14 10:28:42;;;;;;;3.03;1.60;;;;;;;26.75;50.23;99728.44;5086192;28;20135;-62
2021/09/14 10:31:38;;;;;;;4.43;1.92;;;;;;;26.70;50.39;99732.50;5103180;28;20488;-62
2021/09/14 10:34:08;;;;;;;4.60;1.92;;;;;;;26.73;49.97;99743.16;5091877;28;20052;-61
2021/09/14 10:36:37;;;;;;;4.10;2.13;;;;;;;26.73;50.04;99742.34;5093257;28;20123;-61
2021/09/14 10:39:18;;;;;;;5.53;1.45;;;;;;;26.62;50.11;99746.00;5108654;28;20579;-61
2021/09/14 10:41:49;;;;;;;2.63;1.30;;;;;;;26.55;50.42;99748.06;5113297;28;20126;-61
2021/09/14 10:44:24;;;;;;;3.55;1.95;;;;;;;26.46;50.42;99734.97;5094631;28;20451;-61
2021/09/14 10:47:09;;;;;;;2.80;1.70;;;;;;;26.38;50.27;99738.22;5111586;28;20439;-61
2021/09/14 10:49:44;;;;;;;3.28;1.50;;;;;;;26.30;50.64;99736.59;5097892;27;20048;-62
2021/09/14 10:52:12;;;;;;;3.65;1.50;;;;;;;26.21;50.76;99736.97;5096958;28;20051;-62
2021/09/14 10:54:49;;;;;;;2.58;1.33;;;;;;;26.07;50.87;99734.91;5101260;28;20127;-61
2021/09/14 10:57:19;;;;;;;1.92;1.20;;;;;;;25.98;51.22;99743.03;5102115;28;20283;-61
2021/09/14 10:59:48;;;;;;;5.90;1.30;;;;;;;25.95;51.38;99746.75;5107837;27;20043;-61
2021/09/14 11:02:15;;;;;;;2.80;1.63;;;;;;;25.55;51.62;99708.59;5102919;28;20067;-61
2021/09/14 11:04:42;;;;;;;6.18;1.40;;;;;;;25.71;52.00;99734.78;5103079;28;20131;-61
2021/09/14 11:07:11;;;;;;;4.63;1.58;;;;;;;25.86;52.15;99723.41;5109909;28;20552;-61
2021/09/14 11:09:39;;;;;;;5.47;1.58;;;;;;;26.18;51.68;99721.41;5102726;27;20126;-62
2021/09/14 11:12:17;;;;;;;4.63;2.15;;;;;;;26.44;51.14;99714.50;5100647;28;20070;-62
2021/09/14 11:14:44;;;;;;;6.30;2.20;;;;;;;26.82;50.86;99722.69;5095495;28;20678;-62
2021/09/14 11:17:25;;;;;;;7.05;2.63;;;;;;;27.28;50.27;99710.31;5103834;28;20078;-61
2021/09/14 11:19:53;;;;;;;7.72;2.70;;;;;;;27.86;49.89;99705.97;5101773;27;20502;-62
2021/09/14 11:22:35;;;;;;;3.53;1.50;;;;;;;28.06;49.21;99695.59;5104068;28;20040;-62
2021/09/14 11:25:03;;;;;;;4.07;2.10;;;;;;;27.98;48.71;99696.91;5104517;28;20432;-62
2021/09/14 11:27:31;;;;;;;3.72;1.70;;;;;;;28.08;48.93;99690.25;5102931;27;20070;-61
2021/09/14 11:29:58;;;;;;;1.70;1.48;;;;;;;27.99;48.00;99692.78;5092909;28;20105;-61
2021/09/14 11:32:26;;;;;;;4.53;2.22;;;;;;;27.97;47.89;99671.50;5103299;28;20075;-62
2021/09/14 11:34:57;;;;;;;4.88;2.08;;;;;;;28.23;47.90;99673.75;5108016;27;20126;-62
2021/09/14 11:37:26;;;;;;;18.92;5.97;;;;;;;28.78;46.97;99669.97;5109342;28;20126;-62
2021/09/14 11:39:54;;;;;;;2.35;1.35;;;;;;;28.88;46.54;99662.50;5103032;27;20050;-62
2021/09/14 11:42:21;;;;;;;6.35;2.35;;;;;;;28.44;46.30;99672.78;5093262;28;20441;-62
2021/09/14 11:44:48;;;;;;;2.45;1.33;;;;;;;28.56;46.38;99659.97;5099343;28;20115;-62
2021/09/14 11:47:14;;;;;;;3.05;1.52;;;;;;;28.85;45.81;99663.34;5094777;28;20518;-62
2021/09/14 11:49:50;;;;;;;2.90;1.58;;;;;;;29.06;45.89;99642.22;5105812;28;20044;-62
2021/09/14 11:52:17;;;;;;;2.22;1.80;;;;;;;29.01;44.80;99655.00;5107339;28;20082;-60
2021/09/14 11:54:44;;;;;;;1.92;1.27;;;;;;;28.64;45.12;99634.84;5110952;28;20131;-60
2021/09/14 11:57:16;;;;;;;2.83;1.55;;;;;;;28.69;45.44;99638.09;5095940;28;20101;-61
2021/09/14 11:59:43;;;;;;;2.67;1.20;;;;;;;28.42;45.03;99640.81;5100523;28;20458;-61
2021/09/14 12:02:11;;;;;;;2.30;1.48;;;;;;;28.11;45.69;99640.63;5104417;28;20099;-61
2021/09/14 12:04:37;;;;;;;6.15;1.60;;;;;;;27.81;46.36;99640.44;5102812;28;20041;-61
2021/09/14 12:07:04;;;;;;;3.38;1.67;;;;;;;27.30;47.06;99644.81;5081478;28;20090;-60
2021/09/14 12:09:31;;;;;;;1.52;1.27;;;;;;;27.25;47.49;99626.00;5099548;28;20105;-61
2021/09/14 12:12:05;;;;;;;6.63;1.90;;;;;;;27.39;47.32;99599.31;5102061;28;20443;-62
2021/09/14 12:14:32;;;;;;;4.35;2.95;;;;;;;27.63;47.17;99637.66;5104750;28;20131;-60
2021/09/14 12:17:03;;;;;;;3.30;1.52;;;;;;;27.77;46.96;99608.09;5097621;28;20051;-61
2021/09/14 12:19:31;;;;;;;4.43;1.80;;;;;;;28.13;46.36;99622.97;5108688;28;20468;-61
2021/09/14 12:21:58;;;;;;;4.90;1.55;;;;;;;28.11;46.15;99622.59;5097748;28;20090;-61
2021/09/14 12:24:25;;;;;;;4.65;1.48;;;;;;;28.00;46.60;99618.97;5105900;28;20130;-60
2021/09/14 12:26:55;;;;;;;3.30;1.50;;;;;;;27.92;46.82;99618.22;5082700;28;20122;-61
2021/09/14 12:29:23;;;;;;;2.65;1.60;;;;;;;27.85;46.70;99619.09;5103423;28;20044;-61
2021/09/14 12:31:49;;;;;;;3.25;2.15;;;;;;;27.64;47.21;99599.13;5107925;28;20039;-61
2021/09/14 12:34:16;;;;;;;2.08;1.58;;;;;;;27.63;46.86;99603.25;5101880;28;20388;-61